sensor_id;sensor_type;location;lat;lon;timestamp;P1;durP1;ratioP1;P2;durP2;ratioP2
30896;SDS011;64229;52.246;21.054;2024-03-08T00:01:34;51.70;;;21.73;;
30896;SDS011;64229;52.246;21.054;2024-03-08T00:03:59;62.65;;;22.38;;
30896;SDS011;64229;52.246;21.054;2024-03-08T00:06:25;52.53;;;23.23;;
30896;SDS011;64229;52.246;21.054;2024-03-08T00:08:50;61.58;;;22.63;;
30896;SDS011;64229;52.246;21.054;2024-03-08T00:11:15;61.45;;;20.85;;
30896;SDS011;64229;52.246;21.054;2024-03-08T00:13:41;60.00;;;21.50;;
30896;SDS011;64229;52.246;21.054;2024-03-08T00:16:06;54.72;;;20.38;;
30896;SDS011;64229;52.246;21.054;2024-03-08T00:18:34;66.22;;;22.05;;
30896;SDS011;64229;52.246;21.054;2024-03-08T00:20:59;55.38;;;20.92;;
30896;SDS011;64229;52.246;21.054;2024-03-08T00:23:25;58.75;;;21.90;;
30896;SDS011;64229;52.246;21.054;2024-03-08T00:25:50;49.22;;;18.65;;
30896;SDS011;64229;52.246;21.054;2024-03-08T00:28:16;53.45;;;20.90;;
30896;SDS011;64229;52.246;21.054;2024-03-08T00:30:42;52.35;;;20.95;;
30896;SDS011;64229;52.246;21.054;2024-03-08T00:33:07;50.15;;;21.25;;
30896;SDS011;64229;52.246;21.054;2024-03-08T00:35:33;54.75;;;20.58;;
30896;SDS011;64229;52.246;21.054;2024-03-08T00:37:58;51.30;;;20.42;;
30896;SDS011;64229;52.246;21.054;2024-03-08T00:40:23;55.00;;;22.40;;
30896;SDS011;64229;52.246;21.054;2024-03-08T00:42:49;53.55;;;20.23;;
30896;SDS011;64229;52.246;21.054;2024-03-08T00:45:14;64.75;;;21.42;;
30896;SDS011;64229;52.246;21.054;2024-03-08T00:47:39;54.75;;;21.13;;
30896;SDS011;64229;52.246;21.054;2024-03-08T00:50:07;57.70;;;21.73;;
30896;SDS011;64229;52.246;21.054;2024-03-08T00:52:33;65.15;;;23.52;;
30896;SDS011;64229;52.246;21.054;2024-03-08T00:54:59;61.38;;;23.10;;
30896;SDS011;64229;52.246;21.054;2024-03-08T00:57:25;57.22;;;22.25;;
30896;SDS011;64229;52.246;21.054;2024-03-08T00:59:50;60.88;;;23.77;;
30896;SDS011;64229;52.246;21.054;2024-03-08T01:02:15;57.35;;;23.70;;
30896;SDS011;64229;52.246;21.054;2024-03-08T01:04:42;60.22;;;24.48;;
30896;SDS011;64229;52.246;21.054;2024-03-08T01:07:07;56.30;;;23.15;;
30896;SDS011;64229;52.246;21.054;2024-03-08T01:09:32;67.95;;;22.65;;
30896;SDS011;64229;52.246;21.054;2024-03-08T01:11:58;59.00;;;23.23;;
30896;SDS011;64229;52.246;21.054;2024-03-08T01:14:23;66.82;;;24.98;;
30896;SDS011;64229;52.246;21.054;2024-03-08T01:16:50;59.30;;;23.50;;
30896;SDS011;64229;52.246;21.054;2024-03-08T01:19:16;66.28;;;23.58;;
30896;SDS011;64229;52.246;21.054;2024-03-08T01:21:41;66.55;;;24.67;;
30896;SDS011;64229;52.246;21.054;2024-03-08T01:24:07;64.85;;;24.55;;
30896;SDS011;64229;52.246;21.054;2024-03-08T01:26:32;60.30;;;23.63;;
30896;SDS011;64229;52.246;21.054;2024-03-08T01:28:59;67.32;;;24.80;;
30896;SDS011;64229;52.246;21.054;2024-03-08T01:31:24;63.08;;;24.98;;
30896;SDS011;64229;52.246;21.054;2024-03-08T01:33:50;60.13;;;22.98;;
30896;SDS011;64229;52.246;21.054;2024-03-08T01:36:15;61.70;;;25.23;;
30896;SDS011;64229;52.246;21.054;2024-03-08T01:38:41;59.92;;;22.58;;
30896;SDS011;64229;52.246;21.054;2024-03-08T01:41:07;66.60;;;25.63;;
30896;SDS011;64229;52.246;21.054;2024-03-08T01:43:32;66.57;;;24.30;;
30896;SDS011;64229;52.246;21.054;2024-03-08T01:45:58;63.97;;;25.48;;
30896;SDS011;64229;52.246;21.054;2024-03-08T01:48:29;57.63;;;22.65;;
30896;SDS011;64229;52.246;21.054;2024-03-08T01:50:56;66.60;;;25.45;;
30896;SDS011;64229;52.246;21.054;2024-03-08T01:53:22;64.70;;;24.58;;
30896;SDS011;64229;52.246;21.054;2024-03-08T01:55:49;66.93;;;24.02;;
30896;SDS011;64229;52.246;21.054;2024-03-08T01:58:15;74.03;;;25.13;;
30896;SDS011;64229;52.246;21.054;2024-03-08T02:00:44;60.88;;;24.05;;
30896;SDS011;64229;52.246;21.054;2024-03-08T02:03:10;59.33;;;23.95;;
30896;SDS011;64229;52.246;21.054;2024-03-08T02:05:36;64.60;;;24.15;;
30896;SDS011;64229;52.246;21.054;2024-03-08T02:08:03;68.65;;;25.52;;
30896;SDS011;64229;52.246;21.054;2024-03-08T02:10:30;70.75;;;24.63;;
30896;SDS011;64229;52.246;21.054;2024-03-08T02:12:57;67.43;;;24.27;;
30896;SDS011;64229;52.246;21.054;2024-03-08T02:15:23;70.93;;;26.42;;
30896;SDS011;64229;52.246;21.054;2024-03-08T02:17:48;68.43;;;26.35;;
30896;SDS011;64229;52.246;21.054;2024-03-08T02:20:14;69.65;;;26.80;;
30896;SDS011;64229;52.246;21.054;2024-03-08T02:22:39;64.35;;;25.23;;
30896;SDS011;64229;52.246;21.054;2024-03-08T02:25:05;73.93;;;27.38;;
30896;SDS011;64229;52.246;21.054;2024-03-08T02:27:30;68.32;;;27.55;;
30896;SDS011;64229;52.246;21.054;2024-03-08T02:29:56;78.10;;;29.10;;
30896;SDS011;64229;52.246;21.054;2024-03-08T02:32:22;75.93;;;28.27;;
30896;SDS011;64229;52.246;21.054;2024-03-08T02:34:48;74.88;;;27.25;;
30896;SDS011;64229;52.246;21.054;2024-03-08T02:37:13;71.07;;;27.83;;
30896;SDS011;64229;52.246;21.054;2024-03-08T02:39:38;70.97;;;27.45;;
30896;SDS011;64229;52.246;21.054;2024-03-08T02:42:04;76.73;;;27.37;;
30896;SDS011;64229;52.246;21.054;2024-03-08T02:44:29;77.95;;;29.63;;
30896;SDS011;64229;52.246;21.054;2024-03-08T02:46:54;83.97;;;27.92;;
30896;SDS011;64229;52.246;21.054;2024-03-08T02:49:20;75.03;;;28.52;;
30896;SDS011;64229;52.246;21.054;2024-03-08T02:51:46;79.05;;;28.45;;
30896;SDS011;64229;52.246;21.054;2024-03-08T02:54:11;78.00;;;27.42;;
30896;SDS011;64229;52.246;21.054;2024-03-08T02:56:36;75.75;;;28.90;;
30896;SDS011;64229;52.246;21.054;2024-03-08T02:59:02;81.53;;;28.65;;
30896;SDS011;64229;52.246;21.054;2024-03-08T03:01:27;87.80;;;29.27;;
30896;SDS011;64229;52.246;21.054;2024-03-08T03:03:53;77.40;;;29.20;;
30896;SDS011;64229;52.246;21.054;2024-03-08T03:06:18;94.75;;;30.48;;
30896;SDS011;64229;52.246;21.054;2024-03-08T03:08:45;77.32;;;29.17;;
30896;SDS011;64229;52.246;21.054;2024-03-08T03:11:11;83.60;;;31.15;;
30896;SDS011;64229;52.246;21.054;2024-03-08T03:13:38;79.53;;;31.00;;
30896;SDS011;64229;52.246;21.054;2024-03-08T03:16:04;82.68;;;29.45;;
30896;SDS011;64229;52.246;21.054;2024-03-08T03:18:29;88.50;;;31.92;;
30896;SDS011;64229;52.246;21.054;2024-03-08T03:20:55;81.40;;;30.70;;
30896;SDS011;64229;52.246;21.054;2024-03-08T03:23:20;77.25;;;29.55;;
30896;SDS011;64229;52.246;21.054;2024-03-08T03:25:46;81.25;;;30.92;;
30896;SDS011;64229;52.246;21.054;2024-03-08T03:28:11;82.97;;;30.25;;
30896;SDS011;64229;52.246;21.054;2024-03-08T03:30:39;84.82;;;31.40;;
30896;SDS011;64229;52.246;21.054;2024-03-08T03:33:04;80.80;;;30.15;;
30896;SDS011;64229;52.246;21.054;2024-03-08T03:35:32;87.47;;;30.67;;
30896;SDS011;64229;52.246;21.054;2024-03-08T03:37:59;84.30;;;31.20;;
30896;SDS011;64229;52.246;21.054;2024-03-08T03:40:32;92.78;;;32.10;;
30896;SDS011;64229;52.246;21.054;2024-03-08T03:43:01;87.22;;;31.67;;
30896;SDS011;64229;52.246;21.054;2024-03-08T03:45:27;81.50;;;31.42;;
30896;SDS011;64229;52.246;21.054;2024-03-08T03:47:53;87.18;;;32.42;;
30896;SDS011;64229;52.246;21.054;2024-03-08T03:50:19;89.68;;;33.10;;
30896;SDS011;64229;52.246;21.054;2024-03-08T03:52:45;80.57;;;30.80;;
30896;SDS011;64229;52.246;21.054;2024-03-08T03:55:11;89.43;;;31.58;;
30896;SDS011;64229;52.246;21.054;2024-03-08T03:57:37;90.88;;;33.08;;
30896;SDS011;64229;52.246;21.054;2024-03-08T04:00:03;93.68;;;32.00;;
30896;SDS011;64229;52.246;21.054;2024-03-08T04:02:29;86.93;;;33.20;;
30896;SDS011;64229;52.246;21.054;2024-03-08T04:04:55;90.00;;;33.65;;
30896;SDS011;64229;52.246;21.054;2024-03-08T04:07:20;97.68;;;33.97;;
30896;SDS011;64229;52.246;21.054;2024-03-08T04:09:46;106.30;;;37.42;;
30896;SDS011;64229;52.246;21.054;2024-03-08T04:12:11;102.07;;;34.25;;
30896;SDS011;64229;52.246;21.054;2024-03-08T04:14:38;86.97;;;32.60;;
30896;SDS011;64229;52.246;21.054;2024-03-08T04:17:04;87.93;;;32.95;;
30896;SDS011;64229;52.246;21.054;2024-03-08T04:19:31;92.45;;;34.00;;
30896;SDS011;64229;52.246;21.054;2024-03-08T04:21:56;106.05;;;36.25;;
30896;SDS011;64229;52.246;21.054;2024-03-08T04:24:22;91.13;;;35.10;;
30896;SDS011;64229;52.246;21.054;2024-03-08T04:26:47;104.40;;;35.38;;
30896;SDS011;64229;52.246;21.054;2024-03-08T04:29:12;105.53;;;36.92;;
30896;SDS011;64229;52.246;21.054;2024-03-08T04:31:39;91.90;;;35.78;;
30896;SDS011;64229;52.246;21.054;2024-03-08T04:34:05;98.47;;;37.28;;
30896;SDS011;64229;52.246;21.054;2024-03-08T04:36:30;98.68;;;35.50;;
30896;SDS011;64229;52.246;21.054;2024-03-08T04:38:55;111.72;;;37.78;;
30896;SDS011;64229;52.246;21.054;2024-03-08T04:41:20;93.65;;;35.65;;
30896;SDS011;64229;52.246;21.054;2024-03-08T04:43:46;95.22;;;36.00;;
30896;SDS011;64229;52.246;21.054;2024-03-08T04:46:11;110.93;;;38.47;;
30896;SDS011;64229;52.246;21.054;2024-03-08T04:48:37;104.68;;;37.85;;
30896;SDS011;64229;52.246;21.054;2024-03-08T04:51:02;109.75;;;37.45;;
30896;SDS011;64229;52.246;21.054;2024-03-08T04:53:29;98.38;;;37.65;;
30896;SDS011;64229;52.246;21.054;2024-03-08T04:55:54;110.07;;;38.83;;
30896;SDS011;64229;52.246;21.054;2024-03-08T04:58:22;110.22;;;38.67;;
30896;SDS011;64229;52.246;21.054;2024-03-08T05:00:48;114.78;;;39.72;;
30896;SDS011;64229;52.246;21.054;2024-03-08T05:03:13;103.22;;;40.63;;
30896;SDS011;64229;52.246;21.054;2024-03-08T05:05:39;110.60;;;38.42;;
30896;SDS011;64229;52.246;21.054;2024-03-08T05:08:04;105.93;;;38.42;;
30896;SDS011;64229;52.246;21.054;2024-03-08T05:10:30;106.63;;;39.63;;
30896;SDS011;64229;52.246;21.054;2024-03-08T05:12:55;112.18;;;40.03;;
30896;SDS011;64229;52.246;21.054;2024-03-08T05:15:21;100.57;;;38.13;;
30896;SDS011;64229;52.246;21.054;2024-03-08T05:17:46;96.60;;;37.83;;
30896;SDS011;64229;52.246;21.054;2024-03-08T05:20:12;94.57;;;35.47;;
30896;SDS011;64229;52.246;21.054;2024-03-08T05:22:38;100.60;;;36.60;;
30896;SDS011;64229;52.246;21.054;2024-03-08T05:25:05;102.47;;;37.72;;
30896;SDS011;64229;52.246;21.054;2024-03-08T05:27:33;115.70;;;40.30;;
30896;SDS011;64229;52.246;21.054;2024-03-08T05:29:58;119.32;;;42.85;;
30896;SDS011;64229;52.246;21.054;2024-03-08T05:32:23;102.53;;;40.45;;
30896;SDS011;64229;52.246;21.054;2024-03-08T05:34:49;120.30;;;42.75;;
30896;SDS011;64229;52.246;21.054;2024-03-08T05:37:15;107.47;;;41.80;;
30896;SDS011;64229;52.246;21.054;2024-03-08T05:39:40;109.32;;;42.08;;
30896;SDS011;64229;52.246;21.054;2024-03-08T05:42:06;116.28;;;42.97;;
30896;SDS011;64229;52.246;21.054;2024-03-08T05:44:33;117.40;;;42.90;;
30896;SDS011;64229;52.246;21.054;2024-03-08T05:46:59;111.47;;;41.10;;
30896;SDS011;64229;52.246;21.054;2024-03-08T05:49:24;113.53;;;41.33;;
30896;SDS011;64229;52.246;21.054;2024-03-08T05:51:49;116.05;;;40.85;;
30896;SDS011;64229;52.246;21.054;2024-03-08T05:54:16;110.57;;;42.33;;
30896;SDS011;64229;52.246;21.054;2024-03-08T05:56:41;117.53;;;43.53;;
30896;SDS011;64229;52.246;21.054;2024-03-08T05:59:08;126.18;;;44.08;;
30896;SDS011;64229;52.246;21.054;2024-03-08T06:01:34;118.07;;;41.97;;
30896;SDS011;64229;52.246;21.054;2024-03-08T06:04:01;124.88;;;42.38;;
30896;SDS011;64229;52.246;21.054;2024-03-08T06:06:27;110.40;;;40.30;;
30896;SDS011;64229;52.246;21.054;2024-03-08T06:08:52;120.28;;;40.10;;
30896;SDS011;64229;52.246;21.054;2024-03-08T06:11:18;109.47;;;39.08;;
30896;SDS011;64229;52.246;21.054;2024-03-08T06:13:45;108.90;;;38.78;;
30896;SDS011;64229;52.246;21.054;2024-03-08T06:16:11;110.70;;;39.47;;
30896;SDS011;64229;52.246;21.054;2024-03-08T06:18:36;110.03;;;38.63;;
30896;SDS011;64229;52.246;21.054;2024-03-08T06:21:03;108.57;;;40.08;;
30896;SDS011;64229;52.246;21.054;2024-03-08T06:23:30;99.40;;;38.03;;
30896;SDS011;64229;52.246;21.054;2024-03-08T06:25:58;97.35;;;39.05;;
30896;SDS011;64229;52.246;21.054;2024-03-08T06:28:24;95.25;;;35.63;;
30896;SDS011;64229;52.246;21.054;2024-03-08T06:30:49;100.72;;;38.08;;
30896;SDS011;64229;52.246;21.054;2024-03-08T06:33:16;108.35;;;39.53;;
30896;SDS011;64229;52.246;21.054;2024-03-08T06:35:42;100.28;;;39.13;;
30896;SDS011;64229;52.246;21.054;2024-03-08T06:38:07;103.03;;;37.22;;
30896;SDS011;64229;52.246;21.054;2024-03-08T06:40:32;103.35;;;38.22;;
30896;SDS011;64229;52.246;21.054;2024-03-08T06:42:57;114.18;;;39.45;;
30896;SDS011;64229;52.246;21.054;2024-03-08T06:45:23;96.78;;;37.90;;
30896;SDS011;64229;52.246;21.054;2024-03-08T06:47:48;83.50;;;32.78;;
30896;SDS011;64229;52.246;21.054;2024-03-08T06:50:14;95.68;;;36.00;;
30896;SDS011;64229;52.246;21.054;2024-03-08T06:52:40;96.28;;;35.83;;
30896;SDS011;64229;52.246;21.054;2024-03-08T06:55:07;96.32;;;35.50;;
30896;SDS011;64229;52.246;21.054;2024-03-08T06:57:36;106.60;;;37.90;;
30896;SDS011;64229;52.246;21.054;2024-03-08T07:00:04;106.18;;;35.25;;
30896;SDS011;64229;52.246;21.054;2024-03-08T07:02:30;96.20;;;34.08;;
30896;SDS011;64229;52.246;21.054;2024-03-08T07:04:57;107.45;;;36.95;;
30896;SDS011;64229;52.246;21.054;2024-03-08T07:07:23;107.55;;;41.10;;
30896;SDS011;64229;52.246;21.054;2024-03-08T07:09:48;104.38;;;39.63;;
30896;SDS011;64229;52.246;21.054;2024-03-08T07:12:14;100.30;;;35.20;;
30896;SDS011;64229;52.246;21.054;2024-03-08T07:14:39;90.85;;;35.03;;
30896;SDS011;64229;52.246;21.054;2024-03-08T07:17:10;92.68;;;34.55;;
30896;SDS011;64229;52.246;21.054;2024-03-08T07:19:36;90.43;;;35.95;;
30896;SDS011;64229;52.246;21.054;2024-03-08T07:22:03;101.45;;;34.65;;
30896;SDS011;64229;52.246;21.054;2024-03-08T07:24:29;78.65;;;32.17;;
30896;SDS011;64229;52.246;21.054;2024-03-08T07:27:13;66.30;;;23.43;;
30896;SDS011;64229;52.246;21.054;2024-03-08T07:29:38;85.10;;;31.67;;
30896;SDS011;64229;52.246;21.054;2024-03-08T07:32:03;75.80;;;29.35;;
30896;SDS011;64229;52.246;21.054;2024-03-08T07:34:44;81.90;;;27.35;;
30896;SDS011;64229;52.246;21.054;2024-03-08T07:37:09;70.32;;;26.13;;
30896;SDS011;64229;52.246;21.054;2024-03-08T07:39:36;74.05;;;28.40;;
30896;SDS011;64229;52.246;21.054;2024-03-08T07:42:02;76.45;;;26.85;;
30896;SDS011;64229;52.246;21.054;2024-03-08T07:44:28;67.30;;;26.30;;
30896;SDS011;64229;52.246;21.054;2024-03-08T07:46:54;60.08;;;23.10;;
30896;SDS011;64229;52.246;21.054;2024-03-08T07:49:19;64.73;;;22.63;;
30896;SDS011;64229;52.246;21.054;2024-03-08T07:51:45;62.28;;;23.63;;
30896;SDS011;64229;52.246;21.054;2024-03-08T07:54:10;60.97;;;24.60;;
30896;SDS011;64229;52.246;21.054;2024-03-08T07:56:36;70.80;;;23.60;;
30896;SDS011;64229;52.246;21.054;2024-03-08T07:59:01;59.67;;;22.60;;
30896;SDS011;64229;52.246;21.054;2024-03-08T08:01:29;56.78;;;20.10;;
30896;SDS011;64229;52.246;21.054;2024-03-08T08:03:55;51.25;;;20.77;;
30896;SDS011;64229;52.246;21.054;2024-03-08T08:06:21;47.67;;;20.23;;
30896;SDS011;64229;52.246;21.054;2024-03-08T08:08:47;50.97;;;20.58;;
30896;SDS011;64229;52.246;21.054;2024-03-08T08:11:12;54.40;;;19.15;;
30896;SDS011;64229;52.246;21.054;2024-03-08T08:13:37;51.92;;;20.40;;
30896;SDS011;64229;52.246;21.054;2024-03-08T08:16:03;48.50;;;18.40;;
30896;SDS011;64229;52.246;21.054;2024-03-08T08:18:30;45.50;;;17.33;;
30896;SDS011;64229;52.246;21.054;2024-03-08T08:20:55;47.83;;;17.07;;
30896;SDS011;64229;52.246;21.054;2024-03-08T08:23:21;38.05;;;16.02;;
30896;SDS011;64229;52.246;21.054;2024-03-08T08:25:46;38.05;;;13.75;;
30896;SDS011;64229;52.246;21.054;2024-03-08T08:28:15;33.85;;;12.40;;
30896;SDS011;64229;52.246;21.054;2024-03-08T08:30:42;28.05;;;12.00;;
30896;SDS011;64229;52.246;21.054;2024-03-08T08:33:08;30.00;;;11.95;;
30896;SDS011;64229;52.246;21.054;2024-03-08T08:35:33;33.60;;;13.70;;
30896;SDS011;64229;52.246;21.054;2024-03-08T08:37:58;31.10;;;11.87;;
30896;SDS011;64229;52.246;21.054;2024-03-08T08:40:24;23.83;;;9.70;;
30896;SDS011;64229;52.246;21.054;2024-03-08T08:42:50;28.65;;;11.10;;
30896;SDS011;64229;52.246;21.054;2024-03-08T08:45:16;30.58;;;10.73;;
30896;SDS011;64229;52.246;21.054;2024-03-08T08:47:42;22.60;;;10.00;;
30896;SDS011;64229;52.246;21.054;2024-03-08T08:50:08;25.65;;;10.57;;
30896;SDS011;64229;52.246;21.054;2024-03-08T08:52:36;24.75;;;9.80;;
30896;SDS011;64229;52.246;21.054;2024-03-08T08:55:03;22.83;;;9.02;;
30896;SDS011;64229;52.246;21.054;2024-03-08T08:57:29;21.65;;;8.38;;
30896;SDS011;64229;52.246;21.054;2024-03-08T08:59:55;27.20;;;9.18;;
30896;SDS011;64229;52.246;21.054;2024-03-08T09:02:21;25.10;;;9.18;;
30896;SDS011;64229;52.246;21.054;2024-03-08T09:04:46;25.23;;;9.20;;
30896;SDS011;64229;52.246;21.054;2024-03-08T09:07:12;27.33;;;8.40;;
30896;SDS011;64229;52.246;21.054;2024-03-08T09:09:38;21.25;;;9.30;;
30896;SDS011;64229;52.246;21.054;2024-03-08T09:12:04;21.65;;;9.40;;
30896;SDS011;64229;52.246;21.054;2024-03-08T09:14:29;23.55;;;9.05;;
30896;SDS011;64229;52.246;21.054;2024-03-08T09:16:54;17.00;;;8.32;;
30896;SDS011;64229;52.246;21.054;2024-03-08T09:19:20;20.42;;;9.25;;
30896;SDS011;64229;52.246;21.054;2024-03-08T09:21:45;19.35;;;7.95;;
30896;SDS011;64229;52.246;21.054;2024-03-08T09:24:11;21.50;;;9.32;;
30896;SDS011;64229;52.246;21.054;2024-03-08T09:26:37;23.40;;;9.20;;
30896;SDS011;64229;52.246;21.054;2024-03-08T09:29:02;21.25;;;8.95;;
30896;SDS011;64229;52.246;21.054;2024-03-08T09:31:28;14.73;;;7.40;;
30896;SDS011;64229;52.246;21.054;2024-03-08T09:33:53;20.35;;;8.07;;
30896;SDS011;64229;52.246;21.054;2024-03-08T09:36:18;16.70;;;8.20;;
30896;SDS011;64229;52.246;21.054;2024-03-08T09:38:44;18.52;;;7.63;;
30896;SDS011;64229;52.246;21.054;2024-03-08T09:41:09;15.80;;;7.85;;
30896;SDS011;64229;52.246;21.054;2024-03-08T09:43:35;15.18;;;7.30;;
30896;SDS011;64229;52.246;21.054;2024-03-08T09:46:01;21.70;;;9.05;;
30896;SDS011;64229;52.246;21.054;2024-03-08T09:48:27;16.73;;;7.65;;
30896;SDS011;64229;52.246;21.054;2024-03-08T09:50:54;17.77;;;7.80;;
30896;SDS011;64229;52.246;21.054;2024-03-08T09:53:20;14.13;;;7.38;;
30896;SDS011;64229;52.246;21.054;2024-03-08T09:55:47;14.05;;;7.45;;
30896;SDS011;64229;52.246;21.054;2024-03-08T09:58:14;13.05;;;6.82;;
30896;SDS011;64229;52.246;21.054;2024-03-08T10:00:42;33.92;;;14.65;;
30896;SDS011;64229;52.246;21.054;2024-03-08T10:03:08;51.92;;;23.38;;
30896;SDS011;64229;52.246;21.054;2024-03-08T10:05:34;15.27;;;7.70;;
30896;SDS011;64229;52.246;21.054;2024-03-08T10:07:59;16.30;;;7.72;;
30896;SDS011;64229;52.246;21.054;2024-03-08T10:10:24;23.08;;;8.43;;
30896;SDS011;64229;52.246;21.054;2024-03-08T10:12:50;17.23;;;8.25;;
30896;SDS011;64229;52.246;21.054;2024-03-08T10:15:16;17.40;;;8.60;;
30896;SDS011;64229;52.246;21.054;2024-03-08T10:17:42;18.15;;;8.27;;
30896;SDS011;64229;52.246;21.054;2024-03-08T10:20:13;22.55;;;8.93;;
30896;SDS011;64229;52.246;21.054;2024-03-08T10:22:40;19.60;;;8.48;;
30896;SDS011;64229;52.246;21.054;2024-03-08T10:25:08;20.02;;;8.43;;
30896;SDS011;64229;52.246;21.054;2024-03-08T10:27:40;22.83;;;10.18;;
30896;SDS011;64229;52.246;21.054;2024-03-08T10:30:06;24.25;;;9.57;;
30896;SDS011;64229;52.246;21.054;2024-03-08T10:32:37;24.88;;;9.48;;
30896;SDS011;64229;52.246;21.054;2024-03-08T10:35:03;24.58;;;9.05;;
30896;SDS011;64229;52.246;21.054;2024-03-08T10:37:28;19.38;;;9.68;;
30896;SDS011;64229;52.246;21.054;2024-03-08T10:40:03;24.73;;;9.68;;
30896;SDS011;64229;52.246;21.054;2024-03-08T10:42:38;18.88;;;9.00;;
30896;SDS011;64229;52.246;21.054;2024-03-08T10:45:15;22.95;;;10.05;;
30896;SDS011;64229;52.246;21.054;2024-03-08T10:47:46;19.80;;;8.57;;
30896;SDS011;64229;52.246;21.054;2024-03-08T10:50:18;21.85;;;9.75;;
30896;SDS011;64229;52.246;21.054;2024-03-08T10:52:50;22.10;;;8.90;;
30896;SDS011;64229;52.246;21.054;2024-03-08T10:55:17;22.70;;;9.68;;
30896;SDS011;64229;52.246;21.054;2024-03-08T10:57:43;22.20;;;9.35;;
30896;SDS011;64229;52.246;21.054;2024-03-08T11:00:08;22.90;;;9.73;;
30896;SDS011;64229;52.246;21.054;2024-03-08T11:02:36;19.52;;;9.38;;
30896;SDS011;64229;52.246;21.054;2024-03-08T11:05:04;23.27;;;10.15;;
30896;SDS011;64229;52.246;21.054;2024-03-08T11:07:37;23.98;;;9.48;;
30896;SDS011;64229;52.246;21.054;2024-03-08T11:10:07;23.52;;;9.35;;
30896;SDS011;64229;52.246;21.054;2024-03-08T11:12:44;20.95;;;9.10;;
30896;SDS011;64229;52.246;21.054;2024-03-08T11:15:11;25.35;;;9.65;;
30896;SDS011;64229;52.246;21.054;2024-03-08T11:20:04;21.10;;;9.07;;
30896;SDS011;64229;52.246;21.054;2024-03-08T11:22:40;21.70;;;10.20;;
30896;SDS011;64229;52.246;21.054;2024-03-08T11:25:08;22.38;;;9.77;;
30896;SDS011;64229;52.246;21.054;2024-03-08T11:27:35;18.73;;;8.52;;
30896;SDS011;64229;52.246;21.054;2024-03-08T11:30:05;21.73;;;9.98;;
30896;SDS011;64229;52.246;21.054;2024-03-08T11:32:48;25.80;;;9.60;;
30896;SDS011;64229;52.246;21.054;2024-03-08T11:35:22;21.75;;;9.75;;
30896;SDS011;64229;52.246;21.054;2024-03-08T11:37:50;30.00;;;10.43;;
30896;SDS011;64229;52.246;21.054;2024-03-08T11:40:15;19.35;;;9.30;;
30896;SDS011;64229;52.246;21.054;2024-03-08T11:42:48;17.30;;;8.60;;
30896;SDS011;64229;52.246;21.054;2024-03-08T11:45:14;20.98;;;9.38;;
30896;SDS011;64229;52.246;21.054;2024-03-08T11:47:46;19.15;;;9.13;;
30896;SDS011;64229;52.246;21.054;2024-03-08T11:50:11;21.03;;;10.17;;
30896;SDS011;64229;52.246;21.054;2024-03-08T11:52:37;19.58;;;8.77;;
30896;SDS011;64229;52.246;21.054;2024-03-08T11:55:03;22.75;;;9.73;;
30896;SDS011;64229;52.246;21.054;2024-03-08T11:57:31;19.60;;;9.88;;
30896;SDS011;64229;52.246;21.054;2024-03-08T11:59:57;19.05;;;8.73;;
30896;SDS011;64229;52.246;21.054;2024-03-08T12:02:23;20.80;;;9.48;;
30896;SDS011;64229;52.246;21.054;2024-03-08T12:04:59;22.77;;;9.10;;
30896;SDS011;64229;52.246;21.054;2024-03-08T12:07:25;20.88;;;9.15;;
30896;SDS011;64229;52.246;21.054;2024-03-08T12:12:47;18.65;;;8.02;;
30896;SDS011;64229;52.246;21.054;2024-03-08T12:15:17;21.65;;;9.20;;
30896;SDS011;64229;52.246;21.054;2024-03-08T12:17:44;21.25;;;9.15;;
30896;SDS011;64229;52.246;21.054;2024-03-08T12:20:14;19.65;;;8.43;;
30896;SDS011;64229;52.246;21.054;2024-03-08T12:22:42;20.90;;;8.65;;
30896;SDS011;64229;52.246;21.054;2024-03-08T12:25:08;21.00;;;9.63;;
30896;SDS011;64229;52.246;21.054;2024-03-08T12:27:36;22.13;;;9.15;;
30896;SDS011;64229;52.246;21.054;2024-03-08T12:30:21;23.00;;;8.80;;
30896;SDS011;64229;52.246;21.054;2024-03-08T12:32:52;23.25;;;8.98;;
30896;SDS011;64229;52.246;21.054;2024-03-08T12:35:25;18.20;;;8.38;;
30896;SDS011;64229;52.246;21.054;2024-03-08T12:37:52;29.08;;;10.25;;
30896;SDS011;64229;52.246;21.054;2024-03-08T12:40:19;22.27;;;8.43;;
30896;SDS011;64229;52.246;21.054;2024-03-08T12:42:50;21.27;;;8.02;;
30896;SDS011;64229;52.246;21.054;2024-03-08T12:45:15;18.70;;;8.35;;
30896;SDS011;64229;52.246;21.054;2024-03-08T12:47:41;20.10;;;8.75;;
30896;SDS011;64229;52.246;21.054;2024-03-08T12:50:07;21.55;;;8.82;;
30896;SDS011;64229;52.246;21.054;2024-03-08T12:52:33;23.83;;;8.65;;
30896;SDS011;64229;52.246;21.054;2024-03-08T12:54:59;20.48;;;8.57;;
30896;SDS011;64229;52.246;21.054;2024-03-08T12:57:31;18.83;;;8.23;;
30896;SDS011;64229;52.246;21.054;2024-03-08T12:59:58;19.80;;;8.68;;
30896;SDS011;64229;52.246;21.054;2024-03-08T13:02:24;17.50;;;8.45;;
30896;SDS011;64229;52.246;21.054;2024-03-08T13:04:49;20.90;;;8.73;;
30896;SDS011;64229;52.246;21.054;2024-03-08T13:07:22;16.50;;;7.85;;
30896;SDS011;64229;52.246;21.054;2024-03-08T13:09:48;18.98;;;8.23;;
30896;SDS011;64229;52.246;21.054;2024-03-08T13:12:14;22.67;;;9.13;;
30896;SDS011;64229;52.246;21.054;2024-03-08T13:14:40;23.58;;;8.60;;
30896;SDS011;64229;52.246;21.054;2024-03-08T13:17:06;18.48;;;8.60;;
30896;SDS011;64229;52.246;21.054;2024-03-08T13:19:35;19.42;;;8.60;;
30896;SDS011;64229;52.246;21.054;2024-03-08T13:22:01;19.27;;;8.50;;
30896;SDS011;64229;52.246;21.054;2024-03-08T13:24:29;20.58;;;9.25;;
30896;SDS011;64229;52.246;21.054;2024-03-08T13:26:54;18.63;;;7.72;;
30896;SDS011;64229;52.246;21.054;2024-03-08T13:29:20;20.67;;;8.20;;
30896;SDS011;64229;52.246;21.054;2024-03-08T13:31:46;18.98;;;7.93;;
30896;SDS011;64229;52.246;21.054;2024-03-08T13:34:16;19.83;;;8.52;;
30896;SDS011;64229;52.246;21.054;2024-03-08T13:36:42;20.95;;;8.77;;
30896;SDS011;64229;52.246;21.054;2024-03-08T13:39:09;21.42;;;8.52;;
30896;SDS011;64229;52.246;21.054;2024-03-08T13:41:40;20.02;;;8.30;;
30896;SDS011;64229;52.246;21.054;2024-03-08T13:44:06;20.10;;;8.40;;
30896;SDS011;64229;52.246;21.054;2024-03-08T13:46:32;24.02;;;8.88;;
30896;SDS011;64229;52.246;21.054;2024-03-08T13:48:59;20.30;;;8.35;;
30896;SDS011;64229;52.246;21.054;2024-03-08T13:51:31;24.90;;;8.98;;
30896;SDS011;64229;52.246;21.054;2024-03-08T13:53:57;21.92;;;9.10;;
30896;SDS011;64229;52.246;21.054;2024-03-08T13:56:22;21.40;;;9.20;;
30896;SDS011;64229;52.246;21.054;2024-03-08T13:58:48;20.48;;;8.48;;
30896;SDS011;64229;52.246;21.054;2024-03-08T14:01:13;18.77;;;9.27;;
30896;SDS011;64229;52.246;21.054;2024-03-08T14:03:38;22.58;;;8.95;;
30896;SDS011;64229;52.246;21.054;2024-03-08T14:06:06;16.48;;;8.18;;
30896;SDS011;64229;52.246;21.054;2024-03-08T14:08:32;16.38;;;8.13;;
30896;SDS011;64229;52.246;21.054;2024-03-08T14:10:58;19.65;;;8.32;;
30896;SDS011;64229;52.246;21.054;2024-03-08T14:13:23;22.58;;;9.05;;